createdAt,value
2023-01-17T00:00:46.061Z,69.11
2023-01-17T00:03:33.977Z,69.07
2023-01-17T00:06:46.009Z,68.91
2023-01-17T00:09:52.749Z,68.82
2023-01-17T00:12:39.993Z,69.26
2023-01-17T00:15:30.912Z,69.05
2023-01-17T00:18:17.730Z,68.67
2023-01-17T00:21:23.219Z,69.19
2023-01-17T00:24:28.757Z,69.15
2023-01-17T00:27:15.510Z,69.09
2023-01-17T00:30:02.331Z,68.93
2023-01-17T00:32:49.201Z,69.17
2023-01-17T00:35:36.046Z,69.27
2023-01-17T00:38:28.372Z,69.32
2023-01-17T00:41:15.217Z,69.25
2023-01-17T00:44:20.813Z,68.90
2023-01-17T00:47:26.193Z,69.13
2023-01-17T00:50:31.387Z,69.47
2023-01-17T00:53:36.792Z,69.31
2023-01-17T00:56:42.203Z,69.13
2023-01-17T00:59:47.559Z,69.21
2023-01-17T01:02:53.250Z,69.34
2023-01-17T01:06:00.051Z,68.99
2023-01-17T01:09:05.664Z,69.20
2023-01-17T01:12:11.260Z,69.09
2023-01-17T01:15:16.810Z,69.37
2023-01-17T01:18:27.069Z,69.05
2023-01-17T01:24:12.253Z,69.02
2023-01-17T01:27:17.911Z,68.89
2023-01-17T01:30:34.585Z,69.34
2023-01-17T01:33:23.371Z,69.12
2023-01-17T01:36:12.557Z,69.26
2023-01-17T01:39:11.269Z,69.31
2023-01-17T01:45:07.047Z,69.25
2023-01-17T01:48:13.390Z,69.18
2023-01-17T01:51:06.778Z,69.01
2023-01-17T01:54:04.127Z,69.08
2023-01-17T01:56:55.237Z,69.07
2023-01-17T01:59:45.877Z,69.33
2023-01-17T02:02:32.919Z,68.92
2023-01-17T02:05:26.095Z,69.15
2023-01-17T02:08:20.818Z,69.12
2023-01-17T02:11:13.090Z,69.13
2023-01-17T02:14:00.350Z,69.54
2023-01-17T02:17:20.711Z,69.41
2023-01-17T02:20:32.711Z,69.54
2023-01-17T02:24:00.116Z,69.00
2023-01-17T02:27:05.370Z,69.41
2023-01-17T02:30:20.235Z,69.20
2023-01-17T02:33:28.133Z,69.31
2023-01-17T02:36:21.133Z,69.41
2023-01-17T02:39:27.085Z,69.12
2023-01-17T02:42:27.912Z,69.28
2023-01-17T02:45:20.507Z,69.45
2023-01-17T02:48:12.020Z,69.48
2023-01-17T02:51:24.536Z,69.51
2023-01-17T02:54:34.324Z,69.22
2023-01-17T02:57:55.355Z,69.30
2023-01-17T03:00:57.571Z,69.35
2023-01-17T03:03:49.096Z,69.70
2023-01-17T03:06:52.922Z,69.54
2023-01-17T03:09:43.882Z,69.38
2023-01-17T03:12:36.031Z,69.21
2023-01-17T03:15:25.774Z,69.47
2023-01-17T03:18:24.218Z,69.17
2023-01-17T03:21:13.257Z,69.53
2023-01-17T03:24:03.182Z,69.59
2023-01-17T03:26:50.123Z,69.73
2023-01-17T03:29:44.974Z,69.50
2023-01-17T03:32:45.381Z,69.35
2023-01-17T03:35:32.452Z,69.54
2023-01-17T03:38:22.015Z,69.31
2023-01-17T03:41:15.013Z,69.54
2023-01-17T03:44:04.279Z,69.43
2023-01-17T03:46:56.591Z,69.43
2023-01-17T03:49:52.450Z,69.43
2023-01-17T03:52:42.771Z,69.60
2023-01-17T03:55:35.038Z,69.53
2023-01-17T03:58:24.418Z,69.54
2023-01-17T04:01:14.138Z,69.63
2023-01-17T04:04:05.083Z,69.57
2023-01-17T04:06:59.286Z,69.59
2023-01-17T04:09:50.398Z,69.56
2023-01-17T04:12:37.806Z,69.74
2023-01-17T04:15:33.432Z,69.97
2023-01-17T04:18:22.686Z,69.30
2023-01-17T04:21:15.030Z,69.36
2023-01-17T04:24:01.880Z,69.64
2023-01-17T04:26:51.274Z,69.66
2023-01-17T04:29:38.390Z,69.42
2023-01-17T04:32:31.667Z,69.47
2023-01-17T04:35:21.392Z,69.60
2023-01-17T04:38:11.085Z,69.58
2023-01-17T04:40:58.009Z,69.58
2023-01-17T04:43:48.454Z,69.40
2023-01-17T04:46:40.502Z,69.75
2023-01-17T04:49:27.527Z,69.60
2023-01-17T04:52:15.194Z,69.44
2023-01-17T04:55:09.705Z,69.34
2023-01-17T04:58:09.691Z,69.53
2023-01-17T05:01:38.482Z,69.13
2023-01-17T05:04:35.033Z,69.33
2023-01-17T05:08:08.873Z,69.39
2023-01-17T05:10:56.108Z,69.37
2023-01-17T05:13:43.183Z,69.32
2023-01-17T05:16:32.123Z,69.55
2023-01-17T05:19:22.444Z,69.38
2023-01-17T05:22:17.956Z,69.42
2023-01-17T05:25:05.234Z,69.15
2023-01-17T05:27:52.445Z,69.50
2023-01-17T05:30:44.817Z,69.52
2023-01-17T05:33:43.847Z,69.29
2023-01-17T05:37:42.499Z,69.38
2023-01-17T05:40:44.936Z,69.14
2023-01-17T05:43:59.426Z,69.79
2023-01-17T05:59:47.480Z,69.41
2023-01-17T06:02:57.186Z,69.58
2023-01-17T06:05:46.681Z,69.35
2023-01-17T06:09:06.179Z,69.49
2023-01-17T06:12:05.115Z,68.88
2023-01-17T06:15:01.867Z,68.63
2023-01-17T06:17:48.663Z,68.60
2023-01-17T06:20:40.919Z,68.33
2023-01-17T06:23:31.036Z,68.50
2023-01-17T06:26:34.061Z,68.39
2023-01-17T06:29:20.851Z,68.55
2023-01-17T06:32:10.441Z,68.61
2023-01-17T06:34:57.313Z,68.48
2023-01-17T06:37:44.106Z,68.61
2023-01-17T06:40:31.000Z,68.72
2023-01-17T06:43:17.825Z,68.47
2023-01-17T06:46:04.701Z,68.66
2023-01-17T06:48:51.625Z,68.61
2023-01-17T06:51:38.554Z,68.51
2023-01-17T06:54:25.474Z,68.38
2023-01-17T06:57:12.257Z,68.33
2023-01-17T06:59:59.190Z,68.62
2023-01-17T07:02:49.425Z,68.38
2023-01-17T07:05:36.454Z,68.38
2023-01-17T07:08:23.383Z,68.13
2023-01-17T07:11:10.952Z,68.45
2023-01-17T07:13:59.255Z,68.14
2023-01-17T07:16:49.130Z,68.56
2023-01-17T07:19:36.101Z,68.52
2023-01-17T07:22:24.074Z,68.20
2023-01-17T07:25:11.296Z,68.70
2023-01-17T07:27:58.202Z,68.47
2023-01-17T07:30:46.495Z,68.34
2023-01-17T07:33:33.462Z,68.45
2023-01-17T07:36:20.247Z,68.33
2023-01-17T07:39:07.398Z,68.34
2023-01-17T07:41:54.632Z,68.56
2023-01-17T07:44:44.110Z,68.58
2023-01-17T07:47:31.472Z,68.60
2023-01-17T07:50:18.407Z,68.55
2023-01-17T07:53:05.628Z,68.54
2023-01-17T07:55:55.437Z,68.54
2023-01-17T07:58:43.080Z,68.80
2023-01-17T08:01:29.991Z,68.61
2023-01-17T08:04:16.865Z,68.39
2023-01-17T08:07:03.669Z,68.68
2023-01-17T08:09:50.683Z,68.87
2023-01-17T08:12:38.541Z,69.12
2023-01-17T08:15:26.848Z,68.60
2023-01-17T08:18:16.441Z,68.67
2023-01-17T08:21:04.162Z,68.76
2023-01-17T08:23:52.186Z,68.53
2023-01-17T08:27:06.710Z,68.30
2023-01-17T08:29:53.793Z,68.97
2023-01-17T08:32:44.372Z,68.72
2023-01-17T08:35:36.046Z,68.85
2023-01-17T08:38:24.032Z,68.65
2023-01-17T08:41:13.210Z,69.09
2023-01-17T08:44:00.197Z,68.72
2023-01-17T08:46:49.062Z,68.61
2023-01-17T08:49:38.933Z,68.87
2023-01-17T08:52:26.406Z,68.79
2023-01-17T08:55:13.389Z,68.92
2023-01-17T08:58:02.220Z,68.70
2023-01-17T09:00:49.125Z,68.85
2023-01-17T09:03:40.908Z,68.71
2023-01-17T09:06:33.553Z,68.95
2023-01-17T09:09:20.573Z,69.04
2023-01-17T09:12:07.664Z,69.05
2023-01-17T09:14:54.654Z,69.17
2023-01-17T09:17:45.512Z,69.22
2023-01-17T09:20:35.330Z,68.89
2023-01-17T09:23:22.764Z,68.80
2023-01-17T09:26:18.006Z,68.96
2023-01-17T09:29:08.568Z,69.60
2023-01-17T09:31:55.411Z,69.38
2023-01-17T09:34:42.231Z,69.58
2023-01-17T09:37:29.908Z,69.83
2023-01-17T09:40:23.187Z,69.47
2023-01-17T09:43:25.304Z,69.83
2023-01-17T09:46:22.690Z,69.62
2023-01-17T09:49:28.353Z,69.92
2023-01-17T09:52:18.426Z,69.64
2023-01-17T09:55:07.915Z,69.89
2023-01-17T09:58:09.619Z,69.88
2023-01-17T10:01:16.181Z,69.71
2023-01-17T10:04:38.149Z,69.90
2023-01-17T10:07:52.145Z,69.75
2023-01-17T10:10:46.202Z,69.77
2023-01-17T10:13:57.096Z,69.75
2023-01-17T10:16:47.282Z,69.84
2023-01-17T10:20:12.476Z,69.89
2023-01-17T10:23:25.316Z,70.02
2023-01-17T10:26:23.438Z,69.68
2023-01-17T10:29:15.281Z,69.75
2023-01-17T10:32:03.073Z,69.76
2023-01-17T10:35:03.602Z,69.60
2023-01-17T10:37:55.996Z,69.75
2023-01-17T10:40:50.241Z,69.72
2023-01-17T10:43:40.430Z,69.54
2023-01-17T10:46:48.454Z,69.48
2023-01-17T10:49:37.420Z,69.53
2023-01-17T10:53:04.308Z,69.74
2023-01-17T10:55:54.232Z,69.54
2023-01-17T10:58:41.090Z,69.63
2023-01-17T11:01:28.203Z,69.85
2023-01-17T11:04:36.897Z,69.79
2023-01-17T11:07:28.710Z,69.83
2023-01-17T11:10:55.205Z,69.90
2023-01-17T11:13:46.067Z,69.77
2023-01-17T11:16:32.949Z,69.82
2023-01-17T11:19:30.477Z,69.54
2023-01-17T11:22:20.574Z,69.87
2023-01-17T11:25:16.921Z,69.62
2023-01-17T11:28:18.886Z,69.56
2023-01-17T11:31:23.045Z,69.53
2023-01-17T11:34:19.239Z,69.95
2023-01-17T11:37:17.166Z,69.70
2023-01-17T11:40:28.473Z,70.02
2023-01-17T11:43:22.103Z,70.39
2023-01-17T11:46:20.352Z,70.21
2023-01-17T11:49:22.425Z,70.30
2023-01-17T11:52:10.662Z,70.46
2023-01-17T11:54:57.543Z,70.77
2023-01-17T11:57:52.569Z,70.45
2023-01-17T12:00:45.933Z,70.61
2023-01-17T12:03:48.513Z,70.21
2023-01-17T12:33:38.970Z,67.04
2023-01-17T12:45:57.112Z,67.03
2023-01-17T12:57:54.637Z,66.96
2023-01-17T14:50:33.644Z,67.99
2023-01-17T16:08:06.558Z,68.55
2023-01-17T16:11:02.223Z,67.41
2023-01-17T16:13:52.497Z,67.64
2023-01-17T16:16:39.460Z,67.29
2023-01-17T16:19:26.922Z,67.75
2023-01-17T16:22:13.834Z,67.54
2023-01-17T16:25:01.294Z,67.56
2023-01-17T16:27:48.912Z,67.81
2023-01-17T16:30:36.300Z,67.63
2023-01-17T16:33:23.085Z,67.64
2023-01-17T16:36:14.903Z,67.70
2023-01-17T16:39:01.729Z,67.80
2023-01-17T16:41:50.075Z,67.46
2023-01-17T16:44:37.179Z,67.37
2023-01-17T16:47:24.248Z,67.81
2023-01-17T16:50:13.518Z,67.74
2023-01-17T16:53:00.433Z,67.63
2023-01-17T16:55:49.873Z,67.68
2023-01-17T16:58:38.814Z,67.53
2023-01-17T17:01:25.720Z,67.64
2023-01-17T17:04:13.092Z,67.34
2023-01-17T17:06:59.967Z,67.73
2023-01-17T17:09:47.575Z,67.63
2023-01-17T17:12:37.289Z,67.46
2023-01-17T17:15:24.055Z,67.34
2023-01-17T17:18:15.433Z,67.89
2023-01-17T17:21:04.863Z,67.84
2023-01-17T17:23:58.850Z,68.00
2023-01-17T17:26:48.822Z,67.93
2023-01-17T17:29:36.126Z,68.01
2023-01-17T17:36:43.098Z,67.47
2023-01-17T17:39:33.340Z,67.57
2023-01-17T17:42:29.740Z,67.64
2023-01-17T17:45:34.301Z,67.62
2023-01-17T17:48:34.119Z,67.34
2023-01-17T17:51:59.015Z,67.38
2023-01-17T17:54:51.947Z,67.54
2023-01-17T17:57:46.634Z,67.25
2023-01-17T18:05:24.766Z,67.17
2023-01-17T18:09:30.076Z,66.63
2023-01-17T18:12:24.371Z,67.21
2023-01-17T18:15:18.449Z,67.36
2023-01-17T18:18:13.827Z,67.27
2023-01-17T18:21:35.550Z,66.64
2023-01-17T18:24:29.489Z,67.02
2023-01-17T18:31:08.959Z,66.63
2023-01-17T18:42:24.766Z,66.63
2023-01-17T18:45:35.110Z,66.21
2023-01-17T18:48:44.992Z,66.30
2023-01-17T18:51:58.673Z,66.20
2023-01-17T18:54:55.325Z,66.32
2023-01-17T18:57:58.570Z,66.58
2023-01-17T19:01:03.439Z,66.72
2023-01-17T19:07:06.132Z,66.49
2023-01-17T19:14:06.493Z,66.46
2023-01-17T19:17:11.471Z,66.51
2023-01-17T19:20:01.192Z,66.41
2023-01-17T19:23:18.235Z,66.24
2023-01-17T19:29:55.997Z,66.63
2023-01-17T19:33:31.620Z,66.74
2023-01-17T19:36:39.703Z,66.63
2023-01-17T19:39:35.404Z,66.42
2023-01-17T20:05:02.840Z,66.67
2023-01-17T20:19:41.194Z,66.91
2023-01-17T20:23:14.807Z,67.32
2023-01-17T20:30:14.601Z,67.14
2023-01-17T20:33:58.852Z,67.32
2023-01-17T20:37:31.934Z,67.39
2023-01-17T20:40:55.257Z,67.36
2023-01-17T20:47:37.486Z,67.32
2023-01-17T20:54:54.023Z,67.38
2023-01-17T21:02:15.637Z,67.36
2023-01-17T21:05:17.336Z,67.49
2023-01-17T21:08:22.733Z,67.44
2023-01-17T21:11:12.361Z,67.30
2023-01-17T21:14:01.784Z,67.59
2023-01-17T21:17:00.167Z,67.41
2023-01-17T21:19:47.318Z,67.56
2023-01-17T21:22:34.339Z,67.44
2023-01-17T21:25:31.900Z,67.34
2023-01-17T21:28:23.024Z,67.52
2023-01-17T21:31:23.444Z,67.59
2023-01-17T21:34:11.601Z,67.70
2023-01-17T21:37:04.142Z,67.62
2023-01-17T21:39:56.500Z,67.71
2023-01-17T21:42:49.741Z,67.70
2023-01-17T21:45:44.310Z,67.58
2023-01-17T21:48:35.143Z,67.66
2023-01-17T21:51:45.399Z,67.78
2023-01-17T21:54:54.701Z,67.74
2023-01-17T21:58:02.167Z,67.76
2023-01-17T22:00:49.439Z,67.82
2023-01-17T22:03:37.118Z,67.88
2023-01-17T22:06:29.534Z,67.87
2023-01-17T22:09:21.920Z,67.97
2023-01-17T22:12:14.200Z,67.97
2023-01-17T22:15:01.040Z,68.02
2023-01-17T22:17:47.895Z,68.02
2023-01-17T22:20:48.280Z,67.90
2023-01-17T22:23:37.596Z,67.88
2023-01-17T22:26:25.405Z,67.95
2023-01-17T22:29:12.576Z,67.86
2023-01-17T22:32:04.011Z,67.98
2023-01-17T22:34:58.616Z,67.91
2023-01-17T22:37:48.143Z,68.02
2023-01-17T22:40:40.834Z,68.22
2023-01-17T22:43:43.684Z,67.93
2023-01-17T22:46:39.427Z,68.23
2023-01-17T22:49:32.073Z,68.65
2023-01-17T22:52:24.782Z,68.13
2023-01-17T22:55:12.342Z,68.40
2023-01-17T22:58:04.865Z,68.05
2023-01-17T23:00:53.803Z,67.92
2023-01-17T23:03:41.238Z,68.29
2023-01-17T23:06:35.969Z,68.30
2023-01-17T23:09:25.221Z,68.34
2023-01-17T23:12:12.093Z,68.30
2023-01-17T23:15:21.264Z,68.13
2023-01-17T23:18:30.329Z,68.44
2023-01-17T23:21:17.211Z,68.45
2023-01-17T23:24:10.230Z,68.37
2023-01-17T23:27:15.782Z,68.33
2023-01-17T23:30:13.591Z,68.65
2023-01-17T23:33:03.585Z,68.63
2023-01-17T23:35:50.558Z,68.64
2023-01-17T23:38:46.788Z,68.68
2023-01-17T23:41:57.241Z,68.72
2023-01-17T23:44:44.050Z,69.00
2023-01-17T23:47:33.393Z,68.72
2023-01-17T23:50:20.201Z,68.83
2023-01-17T23:53:13.637Z,68.77
2023-01-17T23:56:05.955Z,68.98
2023-01-17T23:58:52.956Z,68.78
